Bao Ning Ling — BRJO — position and weather

sailwx.info

Track history (hours):
 
Tides and Currents Weather Stations Pressure Air Temp Water Temp Dewpoint Dewpoint Depression Visibility Wind Speed Wind Dir Waves Ship Positions

Bao Ning Ling

Last reported at 2017-Sep-10 02:38 UTC. Time now 2017-Sep-25 15:16 UTC.
Position N 30°48' E 032°19'.
Warning: this ship's position is 15 days out of date.

Length 189 m; draft 8.3 m.

Type: Cargo ship. MMSI: 414778000.

Date/timePositionNaut miles runAvg speedWind from/ knotsBaromVisibWave heightAir tempDewpointWater temp
2017-Sep-10 02:38N 30°48' E 032°19'1 8.9
2017-Sep-10 02:28N 30°49' E 032°19'6 9.2
2017-Sep-10 01:47N 30°55' E 032°19'3 9.5
2017-Sep-10 01:30N 30°58' E 032°19'14 9.8
2017-Sep-10 00:07N 31°12' E 032°20'1 5.2
2017-Sep-10 00:00N 31°12' E 032°20'3 5.7
2017-Sep-09 23:30N 31°15' E 032°21'4 8.7
2017-Sep-09 23:00N 31°19' E 032°22'4 3.1
2017-Sep-09 21:48N 31°22' E 032°19'1 0.2
2017-Sep-09 19:37N 31°21' E 032°19'0 0.1
2017-Sep-09 19:25N 31°21' E 032°19'2 0.5
2017-Sep-09 15:37N 31°23' E 032°21'2 2.0
2017-Sep-09 14:42N 31°25' E 032°20'1 2.7
2017-Sep-09 14:15N 31°26' E 032°21'1 5.4
2017-Sep-09 14:00N 31°27' E 032°21'3410.5
2017-Sep-09 10:44N 31°46' E 031°47'411.7
2017-Sep-09 10:25N 31°46' E 031°43'511.6
2017-Sep-09 10:00N 31°45' E 031°37'611.7
2017-Sep-09 09:30N 31°45' E 031°30'  
2017-Sep-05 08:39N 31°11' E 029°53'0 0.0
2017-Sep-05 04:24N 31°11' E 029°53'0 0.0
2017-Sep-05 03:51N 31°11' E 029°53'0 0.0
2017-Sep-05 02:36N 31°11' E 029°53'0 0.0
2017-Sep-05 02:29N 31°11' E 029°53'0 0.0
2017-Sep-05 01:45N 31°11' E 029°53'  
2017-Sep-02 15:26N 31°13' E 029°47'41112.3
2017-Sep-01 06:03N 37°14' E 025°51'112.6
2017-Sep-01 06:00N 37°15' E 025°51'612.4
2017-Sep-01 05:30N 37°19' E 025°46'612.5
2017-Sep-01 05:00N 37°25' E 025°45'612.0
2017-Sep-01 04:30N 37°32' E 025°45'612.1
2017-Sep-01 04:01N 37°37' E 025°45'612.1
2017-Sep-01 03:30N 37°44' E 025°45'  
Track history (hours):
 
Tides and Currents Weather Stations Pressure Air Temp Water Temp Dewpoint Dewpoint Depression Visibility Wind Speed Wind Dir Waves Ship Positions

Bao Ning Ling

Last reported at 2017-Sep-10 02:38 UTC. Time now 2017-Sep-25 15:16 UTC.
Position N 30°48' E 032°19'.
Warning: this ship's position is 15 days out of date.

Length 189 m; draft 8.3 m.

Type: Cargo ship. MMSI: 414778000.

Date/timePositionNaut miles runAvg speedWind from/ knotsBaromVisibWave heightAir tempDewpointWater temp
2017-Sep-10 02:38N 30°48' E 032°19'1 8.9
2017-Sep-10 02:28N 30°49' E 032°19'6 9.2
2017-Sep-10 01:47N 30°55' E 032°19'3 9.5
2017-Sep-10 01:30N 30°58' E 032°19'14 9.8
2017-Sep-10 00:07N 31°12' E 032°20'1 5.2
2017-Sep-10 00:00N 31°12' E 032°20'3 5.7
2017-Sep-09 23:30N 31°15' E 032°21'4 8.7
2017-Sep-09 23:00N 31°19' E 032°22'4 3.1
2017-Sep-09 21:48N 31°22' E 032°19'1 0.2
2017-Sep-09 19:37N 31°21' E 032°19'0 0.1
2017-Sep-09 19:25N 31°21' E 032°19'2 0.5
2017-Sep-09 15:37N 31°23' E 032°21'2 2.0
2017-Sep-09 14:42N 31°25' E 032°20'1 2.7
2017-Sep-09 14:15N 31°26' E 032°21'1 5.4
2017-Sep-09 14:00N 31°27' E 032°21'3410.5
2017-Sep-09 10:44N 31°46' E 031°47'411.7
2017-Sep-09 10:25N 31°46' E 031°43'511.6
2017-Sep-09 10:00N 31°45' E 031°37'611.7
2017-Sep-09 09:30N 31°45' E 031°30'  
2017-Sep-05 08:39N 31°11' E 029°53'0 0.0
2017-Sep-05 04:24N 31°11' E 029°53'0 0.0
2017-Sep-05 03:51N 31°11' E 029°53'0 0.0
2017-Sep-05 02:36N 31°11' E 029°53'0 0.0
2017-Sep-05 02:29N 31°11' E 029°53'0 0.0
2017-Sep-05 01:45N 31°11' E 029°53'  
2017-Sep-02 15:26N 31°13' E 029°47'41112.3
2017-Sep-01 06:03N 37°14' E 025°51'112.6
2017-Sep-01 06:00N 37°15' E 025°51'612.4
2017-Sep-01 05:30N 37°19' E 025°46'612.5
2017-Sep-01 05:00N 37°25' E 025°45'612.0
2017-Sep-01 04:30N 37°32' E 025°45'612.1
2017-Sep-01 04:01N 37°37' E 025°45'612.1
2017-Sep-01 03:30N 37°44' E 025°45'  

Dump ship's entire track history